Time;durP1;ratioP1;P1;durP2;ratioP2;P2;SDS_P1;SDS_P2;PMS_P1;PMS_P2;Temp;Humidity;BMP_temperature;BMP_pressure;BME280_temperature;BME280_humidity;BME280_pressure;Samples;Min_cycle;Max_cycle;Signal;HPM_P1;HPM_P2
2021/12/26 00:01:53;;;;;;;;;10.60;10.60;;;;;12.84;73.15;98609.41;4961123;28;8860;-76
2021/12/26 00:04:22;;;;;;;;;13.00;13.00;;;;;12.89;73.17;98612.75;5010200;28;8868;-76
2021/12/26 00:06:51;;;;;;;;;13.80;11.60;;;;;12.86;73.37;98610.22;4955574;28;8876;-77
2021/12/26 00:09:19;;;;;;;;;10.60;9.40;;;;;12.86;72.62;98615.47;5025474;28;9009;-76
2021/12/26 00:11:49;;;;;;;;;13.40;12.40;;;;;12.93;71.99;98616.16;5005689;28;9012;-75
2021/12/26 00:14:18;;;;;;;;;13.40;13.20;;;;;12.92;72.05;98617.91;5001494;28;8941;-75
2021/12/26 00:16:47;;;;;;;;;13.20;11.00;;;;;12.96;71.83;98614.31;4989430;28;9678;-75
2021/12/26 00:19:16;;;;;;;;;10.80;10.20;;;;;12.95;72.17;98614.34;5017538;28;8857;-75
2021/12/26 00:21:45;;;;;;;;;13.80;12.60;;;;;12.96;71.27;98616.94;5005830;28;8862;-76
2021/12/26 00:24:13;;;;;;;;;10.00;10.00;;;;;12.92;71.99;98614.44;4967962;28;9601;-75
2021/12/26 00:26:43;;;;;;;;;8.20;8.00;;;;;12.90;71.27;98618.88;5009595;28;9024;-76
2021/12/26 00:29:13;;;;;;;;;9.00;8.00;;;;;12.81;72.25;98615.56;5005885;28;8867;-76
2021/12/26 00:31:42;;;;;;;;;12.00;8.60;;;;;12.80;71.69;98608.63;4989900;28;8983;-75
2021/12/26 00:34:11;;;;;;;;;11.00;10.80;;;;;12.71;71.40;98619.31;5032473;28;8862;-75
2021/12/26 00:36:40;;;;;;;;;11.20;9.20;;;;;12.62;72.13;98624.75;5026659;28;9781;-74
2021/12/26 00:39:11;;;;;;;;;8.60;8.60;;;;;12.56;72.35;98623.16;5016556;28;9662;-75
2021/12/26 00:41:40;;;;;;;;;11.00;9.80;;;;;12.54;72.67;98626.72;5026733;28;8847;-75
2021/12/26 00:44:10;;;;;;;;;9.60;8.20;;;;;12.56;72.69;98630.16;5014298;28;8896;-74
2021/12/26 00:46:41;;;;;;;;;15.20;10.80;;;;;12.51;71.88;98632.84;5013759;28;8972;-75
2021/12/26 00:49:10;;;;;;;;;9.00;9.00;;;;;12.56;72.03;98628.38;5005558;28;8963;-75
2021/12/26 00:51:39;;;;;;;;;13.20;10.00;;;;;12.51;72.32;98629.38;4989490;28;9007;-74
2021/12/26 00:54:07;;;;;;;;;13.60;12.20;;;;;12.48;72.92;98638.16;4985758;28;8897;-76
2021/12/26 00:56:36;;;;;;;;;11.40;11.40;;;;;12.43;71.79;98643.47;4985181;28;8858;-75
2021/12/26 00:59:05;;;;;;;;;10.80;9.20;;;;;12.46;72.67;98646.03;4985897;28;8882;-75
2021/12/26 01:01:35;;;;;;;;;8.80;8.80;;;;;12.44;71.76;98636.53;4996784;28;8979;-74
2021/12/26 01:04:07;;;;;;;;;11.20;11.20;;;;;12.45;71.62;98640.84;4983535;28;8867;-75
2021/12/26 01:06:36;;;;;;;;;7.80;7.80;;;;;12.38;72.00;98637.53;5005612;28;8953;-75
2021/12/26 01:09:07;;;;;;;;;10.20;10.20;;;;;12.36;72.17;98622.75;4975701;28;8921;-74
2021/12/26 01:11:39;;;;;;;;;10.60;10.60;;;;;12.32;71.94;98621.94;4989525;28;8888;-75
2021/12/26 01:14:12;;;;;;;;;9.80;9.80;;;;;12.25;71.87;98620.41;5005533;28;8844;-75
2021/12/26 01:17:09;;;;;;;;;12.80;11.80;;;;;12.16;72.80;98617.97;4986071;28;8866;-75
2021/12/26 01:19:50;;;;;;;;;6.40;6.20;;;;;12.15;72.80;98614.47;4994143;28;8849;-76
2021/12/26 01:22:20;;;;;;;;;13.60;12.00;;;;;12.09;72.60;98610.25;5010006;28;8974;-73
2021/12/26 01:24:59;;;;;;;;;9.80;9.80;;;;;12.01;73.04;98598.25;5010941;28;8885;-76
2021/12/26 01:27:29;;;;;;;;;14.20;13.20;;;;;11.97;73.26;98588.78;5009726;28;8862;-75
2021/12/26 01:29:57;;;;;;;;;13.80;11.40;;;;;11.88;73.99;98584.56;5010285;28;8868;-75
2021/12/26 01:32:26;;;;;;;;;17.00;14.00;;;;;11.85;74.32;98590.72;5007527;28;8874;-75
2021/12/26 01:35:22;;;;;;;;;14.00;14.00;;;;;11.83;74.78;98591.63;5017190;28;8884;-74
2021/12/26 01:38:15;;;;;;;;;14.80;14.60;;;;;11.78;74.76;98594.34;5024391;28;8903;-76
2021/12/26 01:41:16;;;;;;;;;18.40;15.80;;;;;11.72;74.25;98594.50;5024834;28;9623;-74
2021/12/26 01:44:11;;;;;;;;;15.60;15.00;;;;;11.60;75.21;98592.09;5028251;28;8896;-78
2021/12/26 01:46:49;;;;;;;;;17.00;13.00;;;;;11.62;75.04;98588.56;4999697;28;8866;-74
2021/12/26 01:49:31;;;;;;;;;18.00;14.80;;;;;11.61;74.75;98586.00;4988462;28;8918;-75
2021/12/26 01:52:04;;;;;;;;;16.20;14.00;;;;;11.58;75.20;98586.06;4989950;28;8866;-75
2021/12/26 01:54:38;;;;;;;;;16.20;16.20;;;;;11.59;74.98;98582.56;5004548;28;8848;-76
2021/12/26 01:57:10;;;;;;;;;16.00;16.00;;;;;11.57;74.90;98573.88;4972962;28;8856;-74
2021/12/26 01:59:41;;;;;;;;;15.60;12.60;;;;;11.54;74.49;98566.97;4987158;28;8864;-76
2021/12/26 02:02:25;;;;;;;;;21.20;15.80;;;;;11.38;74.63;98571.66;4970045;28;8854;-75
2021/12/26 02:04:53;;;;;;;;;16.20;14.80;;;;;11.26;74.91;98570.13;4965826;28;8883;-75
2021/12/26 02:07:27;;;;;;;;;16.60;14.80;;;;;11.24;75.27;98558.84;4961897;28;8879;-75
2021/12/26 02:09:56;;;;;;;;;13.80;13.40;;;;;11.21;75.38;98560.66;4965634;28;8911;-74
2021/12/26 02:12:26;;;;;;;;;14.00;13.40;;;;;11.13;75.10;98563.41;4937415;28;8869;-76
2021/12/26 02:14:55;;;;;;;;;15.20;14.60;;;;;11.20;75.00;98558.97;4982949;28;8882;-76
2021/12/26 02:17:28;;;;;;;;;19.00;16.80;;;;;11.13;75.07;98560.81;4972487;28;8979;-76
2021/12/26 02:20:23;;;;;;;;;16.40;15.40;;;;;10.96;75.66;98561.13;4972351;28;8898;-76
2021/12/26 02:22:57;;;;;;;;;15.40;14.00;;;;;11.01;75.35;98563.66;4956339;28;8880;-74
2021/12/26 02:27:30;;;;;;;;;15.40;14.20;;;;;11.07;75.60;98559.19;4989018;28;9100;-75
2021/12/26 02:28:20;;;;;;;;;14.20;13.60;;;;;11.01;75.56;98563.66;4956062;28;8882;-76
2021/12/26 02:30:50;;;;;;;;;14.00;13.60;;;;;11.05;75.42;98555.72;4956445;28;8885;-75
2021/12/26 02:33:20;;;;;;;;;14.00;14.00;;;;;11.21;74.54;98560.66;4987544;28;8861;-75
2021/12/26 02:35:51;;;;;;;;;13.20;13.00;;;;;11.25;74.79;98563.19;4997974;28;8868;-76
2021/12/26 02:38:21;;;;;;;;;22.00;14.60;;;;;11.30;74.80;98556.16;5029073;28;8865;-75
2021/12/26 02:40:51;;;;;;;;;12.40;12.40;;;;;11.38;74.34;98560.34;5028439;28;9631;-77
2021/12/26 02:43:22;;;;;;;;;13.40;13.00;;;;;11.41;74.25;98553.31;5007353;28;8852;-74
2021/12/26 02:45:51;;;;;;;;;15.00;13.60;;;;;11.39;74.64;98549.88;4991323;28;8844;-75
2021/12/26 02:48:20;;;;;;;;;18.00;14.00;;;;;11.55;73.98;98547.81;4958046;28;8892;-76
2021/12/26 02:50:56;;;;;;;;;12.00;12.00;;;;;11.49;73.90;98545.31;5007521;28;8867;-76
2021/12/26 02:53:28;;;;;;;;;12.40;12.00;;;;;11.58;73.52;98539.91;4990805;28;8859;-76
2021/12/26 02:55:59;;;;;;;;;11.20;11.20;;;;;11.62;73.29;98533.72;4985055;28;8866;-77
2021/12/26 02:58:28;;;;;;;;;13.80;12.80;;;;;11.39;73.60;98535.97;4942343;28;8903;-75
2021/12/26 03:01:02;;;;;;;;;10.40;10.40;;;;;11.45;73.90;98530.63;5003553;28;8858;-75
2021/12/26 03:03:31;;;;;;;;;13.20;13.20;;;;;11.37;74.07;98516.88;4989072;28;8957;-78
2021/12/26 03:06:07;;;;;;;;;12.80;12.80;;;;;11.20;74.45;98520.66;4987374;28;8850;-76
2021/12/26 03:08:37;;;;;;;;;12.00;11.00;;;;;11.15;74.67;98513.81;4970827;28;8926;-76
2021/12/26 03:11:06;;;;;;;;;12.20;11.80;;;;;11.09;75.06;98513.03;4999581;28;9015;-76
2021/12/26 03:13:35;;;;;;;;;12.40;12.40;;;;;10.99;75.00;98497.63;4976821;28;9574;-76
2021/12/26 03:16:04;;;;;;;;;12.60;11.60;;;;;10.86;75.47;98491.75;5025066;28;8890;-76
2021/12/26 03:18:33;;;;;;;;;17.20;14.40;;;;;10.63;76.44;98502.63;4989225;28;8866;-75
2021/12/26 03:21:03;;;;;;;;;13.00;13.00;;;;;10.67;76.36;98486.03;5008547;28;8920;-75
2021/12/26 03:23:32;;;;;;;;;13.20;13.20;;;;;10.66;75.90;98490.41;5023991;28;8879;-75
2021/12/26 03:26:03;;;;;;;;;7.80;7.80;;;;;10.63;76.13;98486.97;5027866;28;9754;-75
2021/12/26 03:28:33;;;;;;;;;10.60;10.60;;;;;10.69;75.77;98482.50;5028427;28;8990;-75
2021/12/26 03:31:04;;;;;;;;;18.00;14.00;;;;;10.66;75.82;98485.19;5011776;28;9056;-76
2021/12/26 03:33:35;;;;;;;;;13.60;12.20;;;;;10.69;75.32;98485.09;5028010;28;8963;-76
2021/12/26 03:36:06;;;;;;;;;12.80;12.80;;;;;10.75;74.82;98478.91;5028258;28;8863;-76
2021/12/26 03:38:36;;;;;;;;;10.40;9.00;;;;;10.73;74.27;98476.34;5011070;28;8866;-75
2021/12/26 03:41:10;;;;;;;;;15.40;13.40;;;;;10.85;74.09;98469.16;4964124;28;8871;-75
2021/12/26 03:43:41;;;;;;;;;12.00;12.00;;;;;10.91;73.35;98475.13;5027114;28;8936;-75
2021/12/26 03:46:11;;;;;;;;;15.40;13.20;;;;;11.00;73.28;98476.72;5018777;28;8867;-75
2021/12/26 03:48:41;;;;;;;;;11.40;9.00;;;;;11.02;72.58;98476.66;5011387;28;9019;-75
2021/12/26 03:51:11;;;;;;;;;13.80;11.20;;;;;10.98;72.73;98468.03;4990465;28;8890;-76
2021/12/26 03:53:40;;;;;;;;;14.20;13.40;;;;;10.81;73.74;98475.34;4974911;28;8854;-75
2021/12/26 03:56:09;;;;;;;;;13.00;13.00;;;;;10.72;73.96;98472.03;4990688;28;8851;-74
2021/12/26 03:58:42;;;;;;;;;13.60;12.20;;;;;10.79;73.98;98472.75;4990076;28;8863;-74
2021/12/26 04:01:11;;;;;;;;;14.60;13.80;;;;;10.64;74.26;98473.03;4990122;28;9620;-75
2021/12/26 04:03:40;;;;;;;;;14.20;11.80;;;;;10.95;73.48;98488.13;4989211;28;8843;-76
2021/12/26 04:06:10;;;;;;;;;14.80;14.80;;;;;11.11;72.84;98477.38;4989239;28;8866;-75
2021/12/26 04:08:46;;;;;;;;;13.80;13.80;;;;;11.17;72.03;98465.94;4990077;28;9017;-76
2021/12/26 04:11:14;;;;;;;;;16.40;13.60;;;;;11.06;73.16;98479.19;4997146;28;8903;-76
2021/12/26 04:13:45;;;;;;;;;18.00;16.40;;;;;11.14;72.75;98486.88;4990192;28;8874;-76
2021/12/26 04:16:13;;;;;;;;;18.00;15.00;;;;;11.28;72.02;98479.59;4990204;28;8977;-75
2021/12/26 04:18:42;;;;;;;;;20.00;16.80;;;;;11.29;71.65;98468.28;5006267;28;9625;-77
2021/12/26 04:21:13;;;;;;;;;19.20;19.20;;;;;11.29;71.79;98464.84;4990148;28;8916;-76
2021/12/26 04:23:54;;;;;;;;;16.60;16.60;;;;;11.36;72.04;98468.16;4989941;28;8863;-76
2021/12/26 04:26:22;;;;;;;;;15.80;15.80;;;;;11.37;71.03;98465.53;4990217;28;8902;-75
2021/12/26 04:28:51;;;;;;;;;13.00;12.40;;;;;11.26;71.81;98462.28;5008785;28;8867;-79
2021/12/26 04:31:20;;;;;;;;;18.20;15.20;;;;;11.24;72.11;98469.28;5029039;28;8886;-76
2021/12/26 04:33:49;;;;;;;;;15.60;15.60;;;;;11.17;71.87;98450.28;5029643;28;9652;-75
2021/12/26 04:36:21;;;;;;;;;17.40;16.20;;;;;10.92;73.12;98469.03;5045554;28;8951;-75
2021/12/26 04:38:50;;;;;;;;;21.60;17.20;;;;;11.03;73.23;98461.00;5028732;28;8863;-75
2021/12/26 04:41:19;;;;;;;;;15.00;15.00;;;;;11.00;73.25;98468.00;5012892;28;8854;-75
2021/12/26 04:44:06;;;;;;;;;16.80;16.80;;;;;11.06;73.35;98470.53;5005925;28;8940;-76
2021/12/26 04:47:00;;;;;;;;;16.40;15.20;;;;;11.06;72.71;98475.75;5006073;28;8890;-75
2021/12/26 04:49:31;;;;;;;;;16.40;14.20;;;;;11.09;72.87;98475.66;4972821;28;8866;-75
2021/12/26 04:52:01;;;;;;;;;16.80;15.60;;;;;11.14;72.46;98483.41;4989344;28;9656;-76
2021/12/26 04:54:33;;;;;;;;;18.40;17.20;;;;;11.05;73.02;98479.22;4975871;28;8898;-74
2021/12/26 04:57:02;;;;;;;;;20.00;17.40;;;;;11.04;73.16;98478.38;4938442;28;8947;-74
2021/12/26 04:59:32;;;;;;;;;16.00;15.40;;;;;11.04;73.27;98486.19;4985413;28;8860;-75
2021/12/26 05:02:01;;;;;;;;;20.20;18.00;;;;;11.09;73.03;98486.94;4938184;28;14174;-74
2021/12/26 05:04:29;;;;;;;;;26.40;23.20;;;;;11.08;73.18;98482.63;4969739;28;8849;-76
2021/12/26 05:06:58;;;;;;;;;37.00;35.50;;;;;11.05;72.94;98495.72;4875169;29;9036;-77
2021/12/26 05:09:28;;;;;;;;;28.75;26.00;;;;;10.84;73.95;98477.91;4861857;29;9003;-74
2021/12/26 05:11:58;;;;;;;;;28.40;24.60;;;;;10.61;75.06;98479.19;4889381;29;9163;-77
2021/12/26 05:14:26;;;;;;;;;23.60;18.80;;;;;10.69;74.91;98469.47;4919029;29;8943;-75
2021/12/26 05:16:55;;;;;;;;;16.80;14.80;;;;;10.64;75.16;98473.03;4892624;29;8931;-76
2021/12/26 05:19:25;;;;;;;;;19.50;18.00;;;;;10.51;75.95;98480.25;4892798;29;8873;-77
2021/12/26 05:21:54;;;;;;;;;22.00;18.60;;;;;10.43;76.50;98469.91;4893289;29;8875;-75
2021/12/26 05:24:24;;;;;;;;;18.80;17.80;;;;;10.45;76.64;98478.59;4924007;28;8897;-74
2021/12/26 05:26:54;;;;;;;;;14.00;14.00;;;;;10.41;76.58;98474.31;4930385;29;8896;-77
2021/12/26 05:29:23;;;;;;;;;20.60;20.60;;;;;10.49;76.63;98466.34;4969415;28;8876;-75
2021/12/26 05:31:53;;;;;;;;;19.00;15.60;;;;;10.41;77.20;98463.88;4973126;28;9041;-76
2021/12/26 05:34:23;;;;;;;;;21.00;18.80;;;;;10.34;77.62;98473.56;4972846;28;8870;-75
2021/12/26 05:36:51;;;;;;;;;22.80;19.80;;;;;10.23;78.42;98477.22;4994739;28;8972;-76
2021/12/26 05:39:20;;;;;;;;;19.40;19.00;;;;;10.38;78.15;98490.00;4976004;28;8976;-75
2021/12/26 05:41:49;;;;;;;;;22.00;19.20;;;;;10.49;77.00;98488.09;5008162;28;8995;-76
2021/12/26 05:44:39;;;;;;;;;22.00;21.60;;;;;10.72;76.07;98490.28;5022098;28;8960;-76
2021/12/26 05:47:08;;;;;;;;;22.20;22.20;;;;;10.86;75.48;98492.63;5028179;28;8911;-75
2021/12/26 05:49:53;;;;;;;;;24.00;20.80;;;;;11.01;74.95;98488.00;5040219;28;8997;-75
2021/12/26 05:52:22;;;;;;;;;18.60;18.20;;;;;11.05;74.90;98480.06;5006543;28;9011;-75
2021/12/26 05:54:57;;;;;;;;;20.80;17.80;;;;;11.16;74.31;98486.84;4997224;28;8884;-75
2021/12/26 05:57:27;;;;;;;;;21.20;17.80;;;;;11.22;74.06;98484.97;5013081;28;8879;-75
2021/12/26 05:59:58;;;;;;;;;56.75;45.25;;;;;11.32;73.75;98473.47;4976631;28;8897;-76
2021/12/26 06:02:28;;;;;;;;;53.75;45.75;;;;;11.21;74.08;98472.81;5025844;28;8875;-75
2021/12/26 06:04:58;;;;;;;;;33.20;31.00;;;;;11.13;74.59;98469.50;5010072;28;8966;-75
2021/12/26 06:07:26;;;;;;;;;31.80;26.60;;;;;11.04;74.77;98467.06;5009034;28;8875;-75
2021/12/26 06:09:55;;;;;;;;;37.80;30.60;;;;;10.77;76.36;98466.72;5026614;28;8870;-75
2021/12/26 06:12:24;;;;;;;;;27.40;26.00;;;;;10.76;76.18;98470.22;5008325;28;8830;-76
2021/12/26 06:14:53;;;;;;;;;24.20;22.60;;;;;10.76;75.96;98470.22;5008026;28;9694;-75
2021/12/26 06:17:25;;;;;;;;;25.80;25.80;;;;;10.65;76.65;98477.38;5007978;28;8862;-75
2021/12/26 06:20:13;;;;;;;;;26.40;23.60;;;;;10.72;76.12;98476.38;5008407;28;8854;-76
2021/12/26 06:23:05;;;;;;;;;21.80;19.00;;;;;10.82;75.36;98477.06;4969069;28;8890;-76
2021/12/26 06:26:06;;;;;;;;;78.50;61.00;;;;;10.95;75.19;98469.88;4930553;29;8934;-76
2021/12/26 06:28:42;;;;;;;;;50.50;42.00;;;;;10.90;75.32;98476.00;4914532;29;8986;-76
2021/12/26 06:31:34;;;;;;;;;58.75;48.50;;;;;10.83;75.53;98474.44;4930405;29;8859;-76
2021/12/26 06:34:19;;;;;;;;;129.50;108.50;;;;;10.97;75.23;98484.59;4914856;29;8947;-76
2021/12/26 06:37:07;;;;;;;;;66.50;52.25;;;;;11.01;74.41;98482.78;4919494;29;11292;-76
2021/12/26 06:39:54;;;;;;;;;54.25;44.50;;;;;11.09;74.45;98489.56;4930280;29;8983;-75
2021/12/26 06:42:43;;;;;;;;;46.25;38.75;;;;;11.21;73.90;98487.59;4932457;28;8875;-75
2021/12/26 06:45:30;;;;;;;;;37.75;32.00;;;;;11.32;73.29;98486.50;4922850;28;8876;-75
2021/12/26 06:48:18;;;;;;;;;38.00;35.75;;;;;11.42;72.58;98486.31;4948889;28;8861;-77
2021/12/26 06:50:51;;;;;;;;;30.40;27.60;;;;;11.45;72.10;98487.09;4949133;28;8868;-76
2021/12/26 06:53:22;;;;;;;;;37.20;29.00;;;;;11.52;71.30;98488.69;4933066;28;8904;-75
2021/12/26 06:55:50;;;;;;;;;35.60;31.20;;;;;11.56;70.57;98489.47;4929361;29;8863;-76
2021/12/26 06:58:19;;;;;;;;;71.50;56.75;;;;;11.66;70.82;98498.84;4930076;29;8859;-75
2021/12/26 07:00:48;;;;;;;;;52.00;41.00;;;;;11.67;70.41;98484.03;4923927;28;8873;-76
2021/12/26 07:03:18;;;;;;;;;81.75;64.00;;;;;11.81;70.31;98484.56;4991096;28;8925;-75
2021/12/26 07:05:49;;;;;;;;;92.25;75.25;;;;;11.83;70.15;98484.53;4990788;28;8877;-76
2021/12/26 07:08:23;;;;;;;;;100.00;96.25;;;;;11.89;69.47;98487.91;4991040;28;10529;-76
2021/12/26 07:10:56;;;;;;;;;37.75;32.25;;;;;12.02;69.79;98503.28;4989664;28;10506;-77
2021/12/26 07:13:27;;;;;;;;;27.00;26.40;;;;;11.89;69.27;98508.81;4990658;28;8886;-74
2021/12/26 07:15:56;;;;;;;;;26.00;23.60;;;;;11.82;69.70;98522.88;4991026;28;8901;-76
2021/12/26 07:18:25;;;;;;;;;25.60;22.20;;;;;10.73;74.92;98536.31;4974723;28;9048;-75
2021/12/26 07:20:55;;;;;;;;;32.75;31.50;;;;;10.12;78.87;98558.97;4990628;28;8866;-75
2021/12/26 07:23:24;;;;;;;;;30.40;27.40;;;;;10.11;79.30;98553.78;5006924;28;8870;-74
2021/12/26 07:25:59;;;;;;;;;35.50;33.75;;;;;10.23;79.11;98561.44;4991956;28;8846;-75
2021/12/26 07:28:28;;;;;;;;;31.60;29.60;;;;;10.17;79.62;98555.44;5024898;28;8882;-79
2021/12/26 07:31:27;;;;;;;;;45.25;36.25;;;;;10.29;79.95;98573.50;5026058;28;9591;-76
2021/12/26 07:34:01;;;;;;;;;45.50;39.50;;;;;10.34;79.86;98572.59;5027091;28;9048;-77
2021/12/26 07:36:31;;;;;;;;;41.25;39.00;;;;;10.38;80.48;98577.72;5029957;28;8852;-76
2021/12/26 07:39:12;;;;;;;;;45.75;39.25;;;;;10.53;79.33;98586.19;5026154;28;8987;-76
2021/12/26 07:41:41;;;;;;;;;46.00;41.25;;;;;10.55;79.36;98591.38;5009625;28;8873;-76
2021/12/26 07:44:30;;;;;;;;;40.50;37.50;;;;;10.84;77.54;98596.09;5009488;28;8838;-76
2021/12/26 07:47:18;;;;;;;;;45.00;38.25;;;;;11.10;76.40;98597.41;5025748;28;8880;-77
2021/12/26 07:49:48;;;;;;;;;33.75;33.75;;;;;11.28;75.53;98599.66;5009704;28;8857;-74
2021/12/26 07:52:40;;;;;;;;;39.75;37.00;;;;;11.46;74.53;98608.06;5025533;28;8842;-74
2021/12/26 07:55:27;;;;;;;;;53.50;43.75;;;;;11.18;74.86;98619.00;5025982;28;8900;-76
2021/12/26 07:58:16;;;;;;;;;37.25;34.75;;;;;11.18;75.58;98619.00;5009543;28;8944;-77
2021/12/26 08:01:04;;;;;;;;;34.60;31.80;;;;;11.22;75.52;98625.03;5005174;28;8830;-76
2021/12/26 08:03:47;;;;;;;;;43.25;38.25;;;;;11.30;76.03;98628.34;5009764;28;8907;-76
2021/12/26 08:06:35;;;;;;;;;41.75;35.50;;;;;11.36;75.49;98646.53;5025997;28;8865;-75
2021/12/26 08:09:06;;;;;;;;;38.75;37.25;;;;;11.18;74.29;98642.47;5040634;28;8997;-76
2021/12/26 08:11:35;;;;;;;;;37.00;30.40;;;;;10.91;71.72;98649.03;4977470;28;8894;-78
2021/12/26 08:14:04;;;;;;;;;28.40;25.20;;;;;10.54;70.31;98647.00;5042767;28;8852;-76
2021/12/26 08:16:33;;;;;;;;;25.00;24.00;;;;;10.17;70.70;98663.13;5007441;28;9651;-75
2021/12/26 08:19:02;;;;;;;;;30.80;28.60;;;;;9.99;70.38;98663.38;5022944;28;8871;-76
2021/12/26 08:21:31;;;;;;;;;34.00;31.20;;;;;9.75;70.49;98681.88;5010284;28;9612;-77
2021/12/26 08:24:00;;;;;;;;;28.20;28.20;;;;;9.62;70.56;98695.91;5021898;28;8876;-76
2021/12/26 08:26:32;;;;;;;;;37.00;32.80;;;;;9.61;69.88;98690.72;4993870;28;8862;-76
2021/12/26 08:29:01;;;;;;;;;33.40;33.40;;;;;9.63;68.80;98689.81;5033755;28;8914;-77
2021/12/26 08:31:30;;;;;;;;;35.40;33.40;;;;;9.61;69.16;98696.75;5006609;28;8889;-76
2021/12/26 08:33:59;;;;;;;;;31.60;29.80;;;;;9.47;68.30;98690.81;5032865;28;8854;-75
2021/12/26 08:36:28;;;;;;;;;31.40;28.40;;;;;9.41;68.39;98704.75;5014013;28;8871;-75
2021/12/26 08:38:57;;;;;;;;;39.40;35.80;;;;;9.22;68.88;98706.66;5023199;28;8894;-71
2021/12/26 08:41:25;;;;;;;;;88.00;68.75;;;;;9.30;68.94;98719.59;5003305;28;12223;-70
2021/12/26 08:43:56;;;;;;;;;49.25;43.50;;;;;9.12;68.00;98726.69;5023375;28;9519;-73
2021/12/26 08:46:24;;;;;;;;;48.50;42.00;;;;;9.09;69.04;98725.84;5021339;28;8860;-72
2021/12/26 08:48:53;;;;;;;;;80.50;62.25;;;;;9.12;68.91;98729.28;5023856;28;8889;-73
2021/12/26 08:51:22;;;;;;;;;67.50;53.00;;;;;9.04;68.20;98723.31;5020772;28;8862;-72
2021/12/26 08:53:51;;;;;;;;;43.00;38.25;;;;;8.91;68.85;98737.25;5024270;28;8927;-79
2021/12/26 08:56:20;;;;;;;;;35.75;31.50;;;;;8.82;68.06;98735.59;5005924;28;8898;-79
2021/12/26 08:58:48;;;;;;;;;41.50;38.00;;;;;8.72;67.91;98733.94;5006361;28;8846;-79
2021/12/26 09:01:19;;;;;;;;;30.40;29.40;;;;;8.52;68.63;98736.63;5005563;28;8884;-80
2021/12/26 09:03:48;;;;;;;;;33.00;28.80;;;;;8.42;68.41;98733.22;5006328;28;8900;-78
2021/12/26 09:06:16;;;;;;;;;38.80;31.80;;;;;8.25;70.08;98735.84;5019378;28;8867;-78
2021/12/26 09:08:46;;;;;;;;;31.80;27.60;;;;;8.31;69.54;98737.56;5006813;28;8905;-78
2021/12/26 09:11:16;;;;;;;;;27.00;26.75;;;;;8.44;68.79;98739.25;5007651;28;9732;-78
2021/12/26 09:13:45;;;;;;;;;37.75;36.75;;;;;8.56;68.43;98734.03;5023242;28;9658;-77
2021/12/26 09:16:14;;;;;;;;;46.50;40.75;;;;;8.64;67.97;98736.56;5007493;28;8985;-79
2021/12/26 09:18:44;;;;;;;;;42.00;36.00;;;;;8.69;68.45;98737.38;5009193;28;8898;-78
2021/12/26 09:21:13;;;;;;;;;33.50;29.75;;;;;8.71;67.61;98742.59;5009711;28;8949;-79
2021/12/26 09:23:42;;;;;;;;;36.80;35.40;;;;;8.67;67.30;98735.69;5025734;28;8887;-79
2021/12/26 09:26:11;;;;;;;;;36.00;35.25;;;;;8.50;68.42;98739.22;5010130;28;8882;-79
2021/12/26 09:28:40;;;;;;;;;38.75;35.25;;;;;8.52;68.04;98740.09;5012859;28;8970;-79
2021/12/26 09:31:09;;;;;;;;;42.25;36.00;;;;;8.54;68.65;98738.38;5009903;28;8846;-78
2021/12/26 09:33:38;;;;;;;;;42.00;37.50;;;;;8.57;67.58;98727.09;5009821;28;8882;-75
2021/12/26 09:36:08;;;;;;;;;46.00;39.00;;;;;8.62;68.17;98719.25;4987678;28;8863;-77
2021/12/26 09:38:37;;;;;;;;;41.25;38.50;;;;;8.49;68.99;98728.88;5006101;28;8909;-78
2021/12/26 09:41:05;;;;;;;;;50.00;39.25;;;;;8.58;67.88;98732.28;4992301;28;8848;-78
2021/12/26 09:43:34;;;;;;;;;36.00;35.50;;;;;8.62;68.05;98720.13;4973678;28;8852;-77
2021/12/26 09:46:03;;;;;;;;;38.25;31.75;;;;;8.69;67.57;98723.53;4975135;28;9586;-80
2021/12/26 09:48:31;;;;;;;;;45.75;39.50;;;;;8.72;66.34;98736.53;4991922;28;9025;-79
2021/12/26 09:51:00;;;;;;;;;60.00;47.50;;;;;8.71;66.60;98737.38;4969400;28;9071;-75
2021/12/26 09:53:37;;;;;;;;;46.75;41.50;;;;;8.70;66.62;98727.88;4968192;28;8937;-80
2021/12/26 09:56:07;;;;;;;;;39.25;32.00;;;;;8.67;65.51;98736.53;4956023;28;8969;-78
2021/12/26 09:58:36;;;;;;;;;37.75;36.50;;;;;8.71;66.10;98758.19;4953978;28;8973;-77
2021/12/26 10:01:04;;;;;;;;;53.75;42.75;;;;;8.73;66.29;98762.50;4971036;28;8870;-78
2021/12/26 10:03:34;;;;;;;;;44.75;39.50;;;;;8.75;66.41;98768.56;4972166;28;8867;-78
2021/12/26 10:06:11;;;;;;;;;41.25;36.00;;;;;8.68;65.92;98756.47;4955845;28;8900;-79
2021/12/26 10:08:56;;;;;;;;;41.25;38.50;;;;;8.66;66.29;98760.81;4960347;28;8859;-78
2021/12/26 10:11:28;;;;;;;;;87.67;69.00;;;;;8.66;66.31;98772.94;4955550;28;8932;-77
2021/12/26 10:13:59;;;;;;;;;71.00;56.75;;;;;8.48;66.08;98774.75;4975710;28;9106;-78
2021/12/26 10:16:30;;;;;;;;;64.00;50.00;;;;;8.16;67.34;98778.31;4972220;28;8903;-81
2021/12/26 10:19:00;;;;;;;;;36.75;33.00;;;;;8.09;67.29;98783.53;4969816;28;8882;-78
2021/12/26 10:21:35;;;;;;;;;43.25;34.00;;;;;8.08;67.56;98777.47;4968025;28;8875;-78
2021/12/26 10:24:11;;;;;;;;;49.50;39.75;;;;;8.02;68.24;98789.63;4987951;28;8887;-79
2021/12/26 10:26:43;;;;;;;;;42.25;36.00;;;;;7.96;68.10;98774.94;4972604;28;9032;-77
2021/12/26 10:29:27;;;;;;;;;63.25;49.00;;;;;8.03;68.36;98770.56;4968784;28;8875;-79
2021/12/26 10:32:02;;;;;;;;;48.75;42.75;;;;;7.90;68.58;98774.91;4965618;28;8990;-78
2021/12/26 10:34:36;;;;;;;;;71.25;55.25;;;;;8.00;68.32;98767.09;4985421;28;8865;-79
2021/12/26 10:37:09;;;;;;;;;45.50;40.00;;;;;8.05;68.33;98754.09;4973923;28;8968;-79
2021/12/26 10:39:43;;;;;;;;;42.50;35.75;;;;;8.10;67.22;98773.13;4975367;28;8916;-79
2021/12/26 10:42:16;;;;;;;;;37.00;30.60;;;;;8.03;67.37;98788.75;5007168;28;8884;-81
2021/12/26 10:44:47;;;;;;;;;38.50;37.25;;;;;8.08;67.21;98779.22;4970135;28;8857;-79
2021/12/26 10:47:17;;;;;;;;;47.50;42.25;;;;;8.10;67.22;98782.66;4994771;28;8868;-79
2021/12/26 10:49:52;;;;;;;;;45.25;39.50;;;;;8.09;67.33;98789.59;5006190;28;9658;-78
2021/12/26 10:52:26;;;;;;;;;34.00;31.00;;;;;7.97;67.56;98793.06;4995561;28;8884;-78
2021/12/26 10:55:00;;;;;;;;;48.50;42.25;;;;;8.00;66.99;98781.84;4996691;28;8844;-82
2021/12/26 10:57:31;;;;;;;;;47.75;41.00;;;;;7.90;67.85;98782.69;5016293;28;8902;-79
2021/12/26 11:00:08;;;;;;;;;33.25;32.75;;;;;7.80;68.50;98802.63;5022278;28;8862;-78
2021/12/26 11:02:41;;;;;;;;;35.50;33.25;;;;;7.77;67.16;98810.44;5010416;28;9571;-80
2021/12/26 11:05:12;;;;;;;;;40.50;39.50;;;;;7.86;67.80;98809.53;5038101;28;8850;-78
2021/12/26 11:07:50;;;;;;;;;42.50;34.50;;;;;7.96;67.64;98806.94;5023932;28;8878;-76
2021/12/26 11:10:25;;;;;;;;;39.75;38.25;;;;;8.06;67.34;98807.78;5003271;28;9557;-80
2021/12/26 11:12:56;;;;;;;;;36.25;35.75;;;;;8.11;67.69;98813.81;5009094;28;8860;-78
2021/12/26 11:15:27;;;;;;;;;49.50;39.50;;;;;8.08;66.67;98815.56;4990559;28;8831;-78
2021/12/26 11:17:58;;;;;;;;;46.50;41.50;;;;;7.93;67.08;98809.53;4991662;28;9631;-80
2021/12/26 11:20:34;;;;;;;;;48.50;38.25;;;;;8.03;66.58;98804.31;4987279;28;8858;-81
2021/12/26 11:23:09;;;;;;;;;53.75;42.00;;;;;8.05;67.04;98805.19;4924445;28;8860;-80
2021/12/26 11:25:46;;;;;;;;;118.75;103.25;;;;;8.13;65.85;98811.22;4987479;28;8880;-80
2021/12/26 11:28:17;;;;;;;;;124.00;103.75;;;;;8.06;66.57;98812.97;4932114;28;10735;-78
2021/12/26 11:30:46;;;;;;;;;100.25;80.75;;;;;8.04;67.03;98824.22;4915442;28;10788;-77
2021/12/26 11:33:15;;;;;;;;;63.50;45.50;;;;;7.86;66.39;98827.72;4947165;28;10024;-79
2021/12/26 11:35:44;;;;;;;;;61.25;50.25;;;;;7.83;67.35;98828.59;4915508;28;8854;-78
2021/12/26 11:38:17;;;;;;;;;57.25;43.50;;;;;7.80;67.52;98823.38;4932286;28;8854;-79
2021/12/26 11:41:07;;;;;;;;;54.00;43.00;;;;;7.70;67.32;98830.31;4947744;28;8854;-81
2021/12/26 11:44:11;;;;;;;;;57.75;46.75;;;;;7.70;66.50;98830.31;4943131;28;8896;-78
2021/12/26 11:47:22;;;;;;;;;58.50;47.00;;;;;7.68;67.11;98838.97;4926888;28;8872;-77
2021/12/26 11:50:33;;;;;;;;;50.00;43.25;;;;;7.58;67.43;98817.34;4890379;29;8879;-78
2021/12/26 11:53:48;;;;;;;;;55.25;46.50;;;;;7.45;67.33;98808.72;4909730;29;9026;-78
2021/12/26 11:56:43;;;;;;;;;53.25;41.50;;;;;7.28;67.94;98832.06;4894131;29;8905;-78
2021/12/26 11:59:31;;;;;;;;;46.00;40.00;;;;;7.35;67.60;98838.09;4906708;28;8858;-77